createdAt,value
2018-03-31T00:02:08.622Z,99382.08
2018-03-31T00:04:40.620Z,99372.22
2018-03-31T00:07:12.669Z,99363.08
2018-03-31T00:09:44.709Z,99367.44
2018-03-31T00:12:16.728Z,99369.16
2018-03-31T00:14:48.765Z,99357.48
2018-03-31T00:17:20.785Z,99352.64
2018-03-31T00:19:52.767Z,99360.31
2018-03-31T00:22:25.560Z,99345.37
2018-03-31T00:24:57.558Z,99342.27
2018-03-31T00:27:29.589Z,99344.79
2018-03-31T00:30:01.593Z,99338.67
2018-03-31T00:32:33.627Z,99355.10
2018-03-31T00:35:05.618Z,99356.91
2018-03-31T00:37:37.641Z,99369.20
2018-03-31T00:40:09.638Z,99363.86
2018-03-31T00:42:41.716Z,99358.59
2018-03-31T00:45:13.755Z,99350.79
2018-03-31T00:47:45.772Z,99340.30
2018-03-31T00:50:17.815Z,99339.23
2018-03-31T00:52:49.872Z,99337.47
2018-03-31T00:55:22.729Z,99327.66
2018-03-31T00:57:54.748Z,99330.30
2018-03-31T01:00:26.798Z,99326.34
2018-03-31T01:02:58.836Z,99321.23
2018-03-31T01:05:30.908Z,99336.08
2018-03-31T01:08:02.923Z,99316.64
2018-03-31T01:10:34.969Z,99309.23
2018-03-31T01:13:06.978Z,99311.41
2018-03-31T01:15:39.040Z,99309.77
2018-03-31T01:18:11.083Z,99307.85
2018-03-31T01:20:43.089Z,99302.12
2018-03-31T01:23:15.092Z,99304.27
2018-03-31T01:25:47.142Z,99303.34
2018-03-31T01:28:19.152Z,99298.89
2018-03-31T01:30:51.191Z,99298.55
2018-03-31T01:33:23.217Z,99296.14
2018-03-31T01:35:55.250Z,99301.38
2018-03-31T01:38:27.260Z,99301.18
2018-03-31T01:40:59.287Z,99305.97
2018-03-31T01:43:31.306Z,99319.56
2018-03-31T01:46:03.343Z,99311.61
2018-03-31T01:48:35.344Z,99311.66
2018-03-31T01:51:07.373Z,99322.45
2018-03-31T01:53:39.374Z,99315.45
2018-03-31T01:56:11.390Z,99313.68
2018-03-31T01:58:43.394Z,99310.83
2018-03-31T02:01:15.456Z,99299.23
2018-03-31T02:03:47.464Z,99304.73
2018-03-31T02:06:19.488Z,99305.59
2018-03-31T02:08:51.517Z,99299.01
2018-03-31T02:11:23.545Z,99290.09
2018-03-31T02:13:55.716Z,99288.43
2018-03-31T02:16:27.740Z,99295.82
2018-03-31T02:18:59.748Z,99293.05
2018-03-31T02:21:31.765Z,99288.97
2018-03-31T02:24:03.758Z,99294.26
2018-03-31T02:26:37.650Z,99281.91
2018-03-31T02:29:11.114Z,99285.96
2018-03-31T02:31:43.152Z,99286.33
2018-03-31T02:34:15.182Z,99281.69
2018-03-31T02:36:47.198Z,99284.52
2018-03-31T02:39:19.208Z,99279.23
2018-03-31T02:41:51.236Z,99281.20
2018-03-31T02:44:23.263Z,99270.11
2018-03-31T02:46:55.294Z,99266.02
2018-03-31T02:49:27.305Z,99267.60
2018-03-31T02:51:59.344Z,99265.88
2018-03-31T02:54:31.367Z,99277.98
2018-03-31T02:57:03.380Z,99278.44
2018-03-31T02:59:35.405Z,99285.03
2018-03-31T03:02:07.434Z,99278.20
2018-03-31T03:04:39.580Z,99272.65
2018-03-31T03:07:11.624Z,99270.36
2018-03-31T03:09:43.625Z,99268.58
2018-03-31T03:12:15.633Z,99263.65
2018-03-31T03:14:47.681Z,99259.10
2018-03-31T03:17:19.708Z,99251.69
2018-03-31T03:19:51.749Z,99264.41
2018-03-31T03:22:23.783Z,99268.89
2018-03-31T03:24:55.856Z,99262.89
2018-03-31T03:27:27.947Z,99270.08
2018-03-31T03:29:59.945Z,99256.81
2018-03-31T03:32:32.062Z,99253.83
2018-03-31T03:35:04.116Z,99262.56
2018-03-31T03:37:36.177Z,99263.21
2018-03-31T03:40:08.248Z,99260.42
2018-03-31T03:42:40.324Z,99257.27
2018-03-31T03:45:12.330Z,99258.53
2018-03-31T03:47:44.385Z,99263.22
2018-03-31T03:50:16.424Z,99261.11
2018-03-31T03:52:48.450Z,99267.69
2018-03-31T03:55:20.444Z,99264.81
2018-03-31T03:57:52.476Z,99266.88
2018-03-31T04:00:24.470Z,99270.06
2018-03-31T04:02:56.491Z,99276.77
2018-03-31T04:05:28.486Z,99283.80
2018-03-31T04:08:00.516Z,99292.13
2018-03-31T04:10:32.504Z,99295.24
2018-03-31T04:13:04.518Z,99297.30
2018-03-31T04:15:36.522Z,99292.53
2018-03-31T04:18:08.538Z,99301.80
2018-03-31T04:20:40.534Z,99304.61
2018-03-31T04:23:12.553Z,99308.23
2018-03-31T04:25:44.545Z,99305.80
2018-03-31T04:28:16.564Z,99304.20
2018-03-31T04:30:48.559Z,99311.36
2018-03-31T04:33:20.587Z,99308.37
2018-03-31T04:35:52.592Z,99304.33
2018-03-31T04:38:24.623Z,99302.05
2018-03-31T04:40:56.631Z,99294.02
2018-03-31T04:43:28.666Z,99302.73
2018-03-31T04:46:00.664Z,99286.98
2018-03-31T04:48:32.693Z,99282.90
2018-03-31T04:51:04.702Z,99281.92
2018-03-31T04:53:36.724Z,99280.91
2018-03-31T04:56:08.727Z,99282.52
2018-03-31T04:58:40.762Z,99278.70
2018-03-31T05:01:12.775Z,99265.24
2018-03-31T05:03:44.808Z,99262.98
2018-03-31T05:06:16.814Z,99261.69
2018-03-31T05:08:48.839Z,99264.23
2018-03-31T05:11:20.874Z,99269.52
2018-03-31T05:13:52.904Z,99266.43
2018-03-31T05:16:24.898Z,99273.80
2018-03-31T05:18:56.951Z,99282.23
2018-03-31T05:21:28.951Z,99290.10
2018-03-31T05:24:00.985Z,99290.98
2018-03-31T05:26:32.991Z,99295.61
2018-03-31T05:29:05.010Z,99286.36
2018-03-31T05:31:37.056Z,99284.72
2018-03-31T05:34:09.044Z,99292.16
2018-03-31T05:36:41.057Z,99293.07
2018-03-31T05:39:13.064Z,99295.70
2018-03-31T05:41:45.089Z,99296.63
2018-03-31T05:44:17.090Z,99290.89
2018-03-31T05:46:49.104Z,99307.43
2018-03-31T05:49:21.100Z,99314.52
2018-03-31T05:51:53.126Z,99304.88
2018-03-31T05:54:25.132Z,99306.97
2018-03-31T05:56:57.193Z,99312.45
2018-03-31T05:59:29.183Z,99315.41
2018-03-31T06:02:01.205Z,99317.70
2018-03-31T06:04:33.206Z,99317.81
2018-03-31T06:07:05.252Z,99320.98
2018-03-31T06:09:37.294Z,99320.30
2018-03-31T06:12:09.344Z,99329.48
2018-03-31T06:14:41.389Z,99334.30
2018-03-31T06:17:13.412Z,99326.58
2018-03-31T06:19:45.415Z,99331.43
2018-03-31T06:22:17.462Z,99335.09
2018-03-31T06:24:51.834Z,99336.27
2018-03-31T06:27:23.913Z,99337.09
2018-03-31T06:29:55.925Z,99338.05
2018-03-31T06:32:27.985Z,99340.54
2018-03-31T06:34:59.996Z,99342.59
2018-03-31T06:37:32.070Z,99345.50
2018-03-31T06:40:04.085Z,99340.67
2018-03-31T06:42:36.133Z,99338.92
2018-03-31T06:45:08.150Z,99341.66
2018-03-31T06:47:40.188Z,99336.86
2018-03-31T06:50:12.204Z,99341.02
2018-03-31T06:52:44.302Z,99339.14
2018-03-31T06:55:16.315Z,99344.38
2018-03-31T06:57:48.353Z,99339.90
2018-03-31T07:00:20.366Z,99341.41
2018-03-31T07:02:52.388Z,99338.11
2018-03-31T07:05:24.430Z,99333.73
2018-03-31T07:07:56.454Z,99336.63
2018-03-31T07:10:28.457Z,99344.00
2018-03-31T07:13:00.490Z,99341.64
2018-03-31T07:15:32.534Z,99340.19
2018-03-31T07:18:04.562Z,99334.48
2018-03-31T07:20:36.588Z,99332.31
2018-03-31T07:23:08.633Z,99340.31
2018-03-31T07:25:40.644Z,99330.97
2018-03-31T07:28:12.720Z,99334.72
2018-03-31T07:30:44.736Z,99334.14
2018-03-31T07:33:16.801Z,99335.04
2018-03-31T07:35:48.826Z,99336.67
2018-03-31T07:38:20.872Z,99326.06
2018-03-31T07:40:52.903Z,99330.78
2018-03-31T07:43:24.961Z,99333.34
2018-03-31T07:45:56.983Z,99337.82
2018-03-31T07:48:29.034Z,99327.66
2018-03-31T07:51:01.064Z,99330.26
2018-03-31T07:53:33.154Z,99334.23
2018-03-31T07:56:05.196Z,99326.52
2018-03-31T07:58:37.224Z,99324.77
2018-03-31T08:01:09.256Z,99327.86
2018-03-31T08:03:41.289Z,99327.98
2018-03-31T08:06:13.319Z,99324.65
2018-03-31T08:08:45.350Z,99323.24
2018-03-31T08:11:17.417Z,99317.27
2018-03-31T08:13:49.458Z,99315.63
2018-03-31T08:16:21.494Z,99313.11
2018-03-31T08:18:53.575Z,99313.02
2018-03-31T08:21:25.591Z,99314.44
2018-03-31T08:23:57.646Z,99305.51
2018-03-31T08:26:29.684Z,99306.41
2018-03-31T08:29:01.741Z,99308.49
2018-03-31T08:31:33.805Z,99307.41
2018-03-31T08:34:05.856Z,99314.16
2018-03-31T08:36:37.918Z,99306.97
2018-03-31T08:39:09.960Z,99321.47
2018-03-31T08:41:42.013Z,99325.28
2018-03-31T08:44:14.082Z,99327.34
2018-03-31T08:46:46.122Z,99325.00
2018-03-31T08:49:18.351Z,99319.70
2018-03-31T08:51:50.436Z,99318.31
2018-03-31T08:54:22.532Z,99319.63
2018-03-31T08:56:54.564Z,99318.76
2018-03-31T08:59:26.640Z,99317.03
2018-03-31T09:01:58.686Z,99319.43
2018-03-31T09:04:30.751Z,99313.55
2018-03-31T09:07:02.789Z,99305.09
2018-03-31T09:09:34.963Z,99311.98
2018-03-31T09:12:07.010Z,99305.94
2018-03-31T09:14:39.082Z,99303.91
2018-03-31T09:17:11.122Z,99297.02
2018-03-31T09:19:43.198Z,99289.52
2018-03-31T09:22:15.287Z,99290.18
2018-03-31T09:24:47.361Z,99293.12
2018-03-31T09:27:19.436Z,99287.38
2018-03-31T09:29:51.588Z,99289.89
2018-03-31T09:32:23.800Z,99294.56
2018-03-31T09:34:55.887Z,99289.54
2018-03-31T09:37:28.008Z,99293.11
2018-03-31T09:40:00.252Z,99296.93
2018-03-31T09:42:32.358Z,99290.14
2018-03-31T09:45:04.555Z,99284.34
2018-03-31T09:47:37.321Z,99289.21
2018-03-31T09:50:42.907Z,99287.70
2018-03-31T09:54:56.071Z,99280.32
2018-03-31T10:00:36.369Z,99281.12
2018-03-31T10:03:08.506Z,99277.81
2018-03-31T10:05:40.808Z,99277.61
2018-03-31T10:08:13.454Z,99275.31
2018-03-31T10:10:45.514Z,99277.58
2018-03-31T10:13:18.702Z,99274.91
2018-03-31T10:15:51.147Z,99275.81
2018-03-31T10:18:23.932Z,99283.31
2018-03-31T10:20:56.436Z,99284.41
2018-03-31T10:23:29.067Z,99281.88
2018-03-31T10:26:01.139Z,99289.95
2018-03-31T10:28:33.250Z,99288.00
2018-03-31T10:31:05.273Z,99285.78
2018-03-31T10:33:37.333Z,99286.11
2018-03-31T10:36:09.369Z,99292.18
2018-03-31T10:38:41.391Z,99285.14
2018-03-31T10:41:13.335Z,99294.66
2018-03-31T10:43:45.332Z,99293.93
2018-03-31T10:46:17.270Z,99288.51
2018-03-31T10:48:49.234Z,99285.03
2018-03-31T10:51:21.179Z,99289.20
2018-03-31T10:53:53.139Z,99287.84
2018-03-31T10:56:25.079Z,99284.77
2018-03-31T10:58:57.035Z,99281.16
2018-03-31T11:01:28.977Z,99279.24
2018-03-31T11:04:01.116Z,99276.75
2018-03-31T11:06:33.396Z,99282.70
2018-03-31T11:09:05.437Z,99272.59
2018-03-31T11:11:37.548Z,99275.39
2018-03-31T11:14:09.672Z,99274.70
2018-03-31T11:16:41.668Z,99273.43
2018-03-31T11:19:13.660Z,99275.52
2018-03-31T11:21:45.611Z,99271.27
2018-03-31T11:24:17.578Z,99277.27
2018-03-31T11:26:49.520Z,99277.71
2018-03-31T11:29:21.487Z,99277.66
2018-03-31T11:31:53.461Z,99272.62
2018-03-31T11:34:25.430Z,99271.00
2018-03-31T11:36:57.373Z,99272.39
2018-03-31T11:39:29.546Z,99273.34
2018-03-31T11:42:01.583Z,99271.81
2018-03-31T11:44:33.916Z,99273.23
2018-03-31T11:47:05.933Z,99276.52
2018-03-31T11:49:38.023Z,99272.41
2018-03-31T11:52:10.097Z,99272.97
2018-03-31T11:54:42.206Z,99275.09
2018-03-31T11:57:14.158Z,99277.10
2018-03-31T11:59:46.118Z,99272.78
2018-03-31T12:02:18.064Z,99271.44
2018-03-31T12:04:50.030Z,99272.02
2018-03-31T12:07:21.975Z,99266.08
2018-03-31T12:09:53.941Z,99269.78
2018-03-31T12:12:25.879Z,99265.56
2018-03-31T12:14:58.015Z,99266.34
2018-03-31T12:17:29.977Z,99261.63
2018-03-31T12:20:02.050Z,99270.75
2018-03-31T12:22:34.111Z,99267.23
2018-03-31T12:25:06.165Z,99273.79
2018-03-31T12:27:38.352Z,99276.80
2018-03-31T12:30:10.452Z,99270.32
2018-03-31T12:32:42.461Z,99270.50
2018-03-31T12:35:15.163Z,99276.14
2018-03-31T12:37:47.099Z,99265.84
2018-03-31T12:40:19.079Z,99259.98
2018-03-31T12:42:51.028Z,99259.86
2018-03-31T12:45:22.987Z,99264.43
2018-03-31T12:47:54.924Z,99253.46
2018-03-31T12:50:26.883Z,99261.03
2018-03-31T12:52:58.828Z,99261.45
2018-03-31T12:55:30.838Z,99260.04
2018-03-31T12:58:02.899Z,99256.25
2018-03-31T13:00:34.920Z,99262.91
2018-03-31T13:03:06.962Z,99254.59
2018-03-31T13:05:38.999Z,99255.22
2018-03-31T13:08:10.994Z,99254.02
2018-03-31T13:10:42.970Z,99252.49
2018-03-31T13:13:14.926Z,99256.70
2018-03-31T13:15:46.879Z,99251.81
2018-03-31T13:18:18.814Z,99260.20
2018-03-31T13:20:50.778Z,99265.73
2018-03-31T13:23:22.727Z,99263.00
2018-03-31T13:25:54.686Z,99260.58
2018-03-31T13:28:26.623Z,99255.41
2018-03-31T13:30:58.580Z,99256.67
2018-03-31T13:33:31.629Z,99253.78
2018-03-31T13:36:03.818Z,99251.94
2018-03-31T13:38:35.897Z,99252.77
2018-03-31T13:41:08.049Z,99252.28
2018-03-31T13:43:40.076Z,99256.40
2018-03-31T13:46:12.052Z,99252.97
2018-03-31T13:48:44.042Z,99251.73
2018-03-31T13:51:15.980Z,99254.17
2018-03-31T13:53:47.935Z,99249.87
2018-03-31T13:56:19.871Z,99243.48
2018-03-31T13:58:53.298Z,99251.92
2018-03-31T14:01:25.240Z,99253.01
2018-03-31T14:06:36.886Z,99252.65
2018-03-31T14:09:08.883Z,99252.45
2018-03-31T14:11:40.869Z,99256.00
2018-03-31T14:14:15.362Z,99256.58
2018-03-31T14:16:47.410Z,99254.28
2018-03-31T14:19:19.394Z,99251.09
2018-03-31T14:21:52.102Z,99252.45
2018-03-31T14:24:24.157Z,99254.87
2018-03-31T14:26:56.130Z,99255.89
2018-03-31T14:29:28.115Z,99251.81
2018-03-31T14:32:00.051Z,99247.50
2018-03-31T14:34:32.014Z,99243.48
2018-03-31T14:37:03.958Z,99250.85
2018-03-31T14:39:35.918Z,99252.94
2018-03-31T14:42:08.585Z,99250.31
2018-03-31T14:44:46.196Z,99254.08
2018-03-31T14:47:18.414Z,99259.32
2018-03-31T14:49:56.645Z,99257.20
2018-03-31T14:52:28.615Z,99257.78
2018-03-31T14:55:01.515Z,99258.38
2018-03-31T14:57:33.463Z,99260.15
2018-03-31T15:00:05.425Z,99259.09
2018-03-31T15:02:37.368Z,99264.75
2018-03-31T15:05:09.565Z,99262.73
2018-03-31T15:07:41.628Z,99271.59
2018-03-31T15:10:13.731Z,99273.66
2018-03-31T15:12:45.872Z,99273.56
2018-03-31T15:15:21.633Z,99277.94
2018-03-31T15:17:54.128Z,99279.19
2018-03-31T15:20:26.091Z,99275.24
2018-03-31T15:22:58.033Z,99275.05
2018-03-31T15:25:30.021Z,99269.56
2018-03-31T15:28:02.001Z,99270.39
2018-03-31T15:30:33.967Z,99274.23
2018-03-31T15:33:05.915Z,99275.71
2018-03-31T15:35:37.989Z,99281.61
2018-03-31T15:38:10.618Z,99280.94
2018-03-31T15:40:42.929Z,99281.50
2018-03-31T15:43:14.947Z,99275.56
2018-03-31T15:45:47.443Z,99279.59
2018-03-31T15:48:19.449Z,99278.45
2018-03-31T15:50:51.422Z,99277.44
2018-03-31T15:53:23.374Z,99284.11
2018-03-31T15:55:55.334Z,99293.24
2018-03-31T15:58:27.279Z,99283.08
2018-03-31T16:00:59.258Z,99296.57
2018-03-31T16:03:31.475Z,99295.00
2018-03-31T16:06:04.079Z,99295.08
2018-03-31T16:08:36.024Z,99288.55
2018-03-31T16:11:08.515Z,99290.47
2018-03-31T16:13:40.692Z,99296.14
2018-03-31T16:16:12.874Z,99302.75
2018-03-31T16:18:44.999Z,99296.54
2018-03-31T16:21:16.989Z,99308.49
2018-03-31T16:23:48.950Z,99305.44
2018-03-31T16:26:20.926Z,99302.73
2018-03-31T16:28:54.213Z,99309.22
2018-03-31T16:31:26.265Z,99313.00
2018-03-31T16:33:58.239Z,99315.09
2018-03-31T16:36:30.231Z,99308.63
2018-03-31T16:39:02.173Z,99311.50
2018-03-31T16:41:34.153Z,99308.19
2018-03-31T16:44:06.099Z,99313.86
2018-03-31T16:46:38.431Z,99316.06
2018-03-31T16:49:10.504Z,99315.58
2018-03-31T16:51:47.597Z,99310.83
2018-03-31T16:54:19.754Z,99313.32
2018-03-31T16:56:52.156Z,99308.25
2018-03-31T16:59:24.198Z,99313.34
2018-03-31T17:01:56.242Z,99316.63
2018-03-31T17:04:28.211Z,99313.41
2018-03-31T17:07:00.178Z,99322.69
2018-03-31T17:09:32.114Z,99325.97
2018-03-31T17:12:04.086Z,99317.69
2018-03-31T17:14:36.050Z,99320.34
2018-03-31T17:17:09.078Z,99322.95
2018-03-31T17:19:42.518Z,99325.09
2018-03-31T17:22:14.909Z,99320.69
2018-03-31T17:24:48.837Z,99323.59
2018-03-31T17:27:21.311Z,99323.92
2018-03-31T17:29:53.383Z,99322.91
2018-03-31T17:32:25.339Z,99314.64
2018-03-31T17:34:57.277Z,99328.98
2018-03-31T17:37:29.240Z,99323.20
2018-03-31T17:40:01.224Z,99333.76
2018-03-31T17:42:33.186Z,99338.42
2018-03-31T17:45:05.131Z,99337.37
2018-03-31T17:47:37.101Z,99332.71
2018-03-31T17:50:11.472Z,99337.39
2018-03-31T17:52:44.512Z,99340.80
2018-03-31T17:55:17.627Z,99339.58
2018-03-31T17:57:50.319Z,99336.25
2018-03-31T18:00:23.174Z,99343.03
2018-03-31T18:02:55.408Z,99346.52
2018-03-31T18:05:27.417Z,99353.23
2018-03-31T18:07:59.354Z,99350.19
2018-03-31T18:10:31.315Z,99351.82
2018-03-31T18:13:03.250Z,99357.83
2018-03-31T18:15:35.236Z,99367.13
2018-03-31T18:18:07.193Z,99362.92
2018-03-31T18:20:40.854Z,99364.66
2018-03-31T18:23:15.256Z,99367.94
2018-03-31T18:25:47.962Z,99362.12
2018-03-31T18:28:22.379Z,99370.09
2018-03-31T18:30:59.044Z,99372.55
2018-03-31T18:33:31.066Z,99372.75
2018-03-31T18:36:03.032Z,99378.64
2018-03-31T18:38:34.975Z,99372.75
2018-03-31T18:41:06.946Z,99379.48
2018-03-31T18:43:40.353Z,99378.69
2018-03-31T18:46:24.312Z,99384.13
2018-03-31T18:48:57.458Z,99371.05
2018-03-31T18:51:29.476Z,99372.75
2018-03-31T18:54:01.394Z,99370.73
2018-03-31T18:56:33.380Z,99379.28
2018-03-31T18:59:05.374Z,99376.79
2018-03-31T19:01:37.346Z,99366.67
2018-03-31T19:04:09.908Z,99373.45
2018-03-31T19:06:47.895Z,99370.77
2018-03-31T19:09:20.811Z,99367.40
2018-03-31T19:11:56.651Z,99368.42
2018-03-31T19:14:28.674Z,99370.08
2018-03-31T19:17:06.393Z,99364.87
2018-03-31T19:19:38.536Z,99361.77
2018-03-31T19:22:12.136Z,99367.44
2018-03-31T19:24:53.050Z,99365.34
2018-03-31T19:27:27.589Z,99363.97
2018-03-31T19:29:59.555Z,99365.91
2018-03-31T19:32:31.536Z,99368.53
2018-03-31T19:35:03.480Z,99360.58
2018-03-31T19:37:35.443Z,99357.61
2018-03-31T19:40:07.376Z,99356.59
2018-03-31T19:42:48.683Z,99359.38
2018-03-31T19:45:21.581Z,99355.56
2018-03-31T19:47:55.827Z,99358.56
2018-03-31T19:50:29.146Z,99360.41
2018-03-31T19:53:01.129Z,99361.48
2018-03-31T19:55:33.070Z,99364.91
2018-03-31T19:58:05.043Z,99365.67
2018-03-31T20:00:36.991Z,99361.20
2018-03-31T20:03:13.252Z,99362.95
2018-03-31T20:05:49.041Z,99356.69
2018-03-31T20:08:21.419Z,99353.81
2018-03-31T20:10:53.399Z,99355.39
2018-03-31T20:13:25.363Z,99357.50
2018-03-31T20:15:57.310Z,99356.22
2018-03-31T20:18:29.340Z,99357.48
2018-03-31T20:21:01.336Z,99362.55
2018-03-31T20:23:33.307Z,99360.19
2018-03-31T20:26:05.276Z,99354.28
2018-03-31T20:28:37.221Z,99356.33
2018-03-31T20:31:10.719Z,99350.78
2018-03-31T20:33:43.066Z,99349.49
2018-03-31T20:36:16.335Z,99347.41
2018-03-31T20:38:48.558Z,99342.66
2018-03-31T20:41:20.706Z,99341.06
2018-03-31T20:43:54.060Z,99350.31
2018-03-31T20:46:28.044Z,99343.20
2018-03-31T20:48:59.988Z,99343.13
2018-03-31T20:51:31.947Z,99338.90
2018-03-31T20:54:03.895Z,99344.44
2018-03-31T20:56:35.890Z,99348.28
2018-03-31T20:59:08.052Z,99356.88
2018-03-31T21:01:45.247Z,99367.08
2018-03-31T21:04:18.181Z,99362.92
2018-03-31T21:06:53.094Z,99360.69
2018-03-31T21:09:28.401Z,99360.58
2018-03-31T21:12:00.383Z,99354.28
2018-03-31T21:14:32.324Z,99351.78
2018-03-31T21:17:04.284Z,99351.64
2018-03-31T21:19:36.230Z,99342.84
2018-03-31T21:22:08.298Z,99347.13
2018-03-31T21:24:44.468Z,99351.30
2018-03-31T21:27:16.869Z,99359.29
2018-03-31T21:29:49.650Z,99364.06
2018-03-31T21:32:22.790Z,99357.30
2018-03-31T21:34:55.646Z,99357.34
2018-03-31T21:37:27.646Z,99363.59
2018-03-31T21:39:59.588Z,99362.19
2018-03-31T21:42:31.543Z,99366.34
2018-03-31T21:45:03.479Z,99364.30
2018-03-31T21:47:35.441Z,99355.44
2018-03-31T21:50:07.374Z,99358.89
2018-03-31T21:52:44.161Z,99366.70
2018-03-31T21:55:18.224Z,99364.95
2018-03-31T21:57:54.347Z,99362.38
2018-03-31T22:00:29.386Z,99359.52
2018-03-31T22:03:01.348Z,99362.70
2018-03-31T22:05:33.299Z,99367.78
2018-03-31T22:08:05.264Z,99367.81
2018-03-31T22:10:37.212Z,99374.52
2018-03-31T22:13:15.716Z,99373.21
2018-03-31T22:15:51.436Z,99372.02
2018-03-31T22:18:24.140Z,99370.88
2018-03-31T22:20:56.286Z,99364.42
2018-03-31T22:23:28.249Z,99366.41
2018-03-31T22:26:00.198Z,99371.13
2018-03-31T22:28:32.158Z,99370.67
2018-03-31T22:31:04.098Z,99374.88
2018-03-31T22:33:36.081Z,99371.19
2018-03-31T22:36:08.288Z,99374.92
2018-03-31T22:38:45.634Z,99374.59
2018-03-31T22:41:19.724Z,99373.12
2018-03-31T22:43:53.043Z,99378.30
2018-03-31T22:46:26.253Z,99378.81
2018-03-31T22:48:58.447Z,99386.85
2018-03-31T22:51:30.397Z,99382.36
2018-03-31T22:54:02.581Z,99392.23
2018-03-31T22:56:34.611Z,99392.52
2018-03-31T22:59:06.662Z,99392.95
2018-03-31T23:01:40.145Z,99393.17
2018-03-31T23:04:13.595Z,99392.34
2018-03-31T23:06:46.869Z,99391.84
2018-03-31T23:09:20.109Z,99395.14
2018-03-31T23:11:55.638Z,99390.03
2018-03-31T23:14:28.640Z,99395.56
2018-03-31T23:17:00.609Z,99402.27
2018-03-31T23:19:32.562Z,99395.20
2018-03-31T23:22:04.522Z,99399.42
2018-03-31T23:24:36.460Z,99404.55
2018-03-31T23:27:09.512Z,99400.52
2018-03-31T23:29:43.161Z,99393.80
2018-03-31T23:32:16.801Z,99393.43
2018-03-31T23:34:49.662Z,99396.27
2018-03-31T23:37:23.361Z,99403.97
2018-03-31T23:39:56.043Z,99408.16
2018-03-31T23:42:28.006Z,99409.88
2018-03-31T23:44:59.947Z,99405.71
2018-03-31T23:47:31.912Z,99401.77
2018-03-31T23:50:03.860Z,99403.67
2018-03-31T23:52:35.823Z,99400.59
2018-03-31T23:55:07.840Z,99402.29
2018-03-31T23:57:41.965Z,99397.53
